createdAt,value
2019-01-28T00:01:12.572Z,0.80
2019-01-28T00:03:42.051Z,0.80
2019-01-28T00:06:11.180Z,0.80
2019-01-28T00:08:40.336Z,0.70
2019-01-28T00:11:09.459Z,0.70
2019-01-28T00:13:38.895Z,0.70
2019-01-28T00:16:08.027Z,0.70
2019-01-28T00:18:37.190Z,0.70
2019-01-28T00:21:06.848Z,0.70
2019-01-28T00:23:36.288Z,0.70
2019-01-28T00:26:05.884Z,0.70
2019-01-28T00:28:36.502Z,0.70
2019-01-28T00:31:05.735Z,0.70
2019-01-28T00:33:35.157Z,0.70
2019-01-28T00:36:04.643Z,0.70
2019-01-28T00:38:33.799Z,0.60
2019-01-28T00:41:03.236Z,0.60
2019-01-28T00:43:32.394Z,0.60
2019-01-28T00:46:01.524Z,0.60
2019-01-28T00:48:31.349Z,0.60
2019-01-28T00:51:00.778Z,0.60
2019-01-28T00:53:29.947Z,0.60
2019-01-28T00:55:59.602Z,0.60
2019-01-28T00:58:29.042Z,0.50
2019-01-28T01:00:58.790Z,0.50
2019-01-28T01:03:28.287Z,0.50
2019-01-28T01:05:57.415Z,0.50
2019-01-28T01:08:27.120Z,0.50
2019-01-28T01:10:56.576Z,0.50
2019-01-28T01:13:25.732Z,0.50
2019-01-28T01:15:55.127Z,0.50
2019-01-28T01:18:24.853Z,0.40
2019-01-28T01:20:54.843Z,0.40
2019-01-28T01:23:24.263Z,0.40
2019-01-28T01:25:54.308Z,0.40
2019-01-28T01:28:23.811Z,0.40
2019-01-28T01:30:52.935Z,0.40
2019-01-28T01:33:22.094Z,0.40
2019-01-28T01:35:51.495Z,0.40
2019-01-28T01:38:21.419Z,0.40
2019-01-28T01:40:51.111Z,0.40
2019-01-28T01:43:20.615Z,0.30
2019-01-28T01:45:50.342Z,0.30
2019-01-28T01:48:19.635Z,0.30
2019-01-28T01:50:49.300Z,0.30
2019-01-28T01:53:18.455Z,0.30
2019-01-28T01:55:47.848Z,0.30
2019-01-28T01:58:17.810Z,0.30
2019-01-28T02:00:46.931Z,0.30
2019-01-28T02:03:16.097Z,0.20
2019-01-28T02:05:45.487Z,0.20
2019-01-28T02:08:14.922Z,0.20
2019-01-28T02:10:44.047Z,0.20
2019-01-28T02:13:13.467Z,0.10
2019-01-28T02:15:42.603Z,0.10
2019-01-28T02:18:12.031Z,0.00
2019-01-28T02:20:41.151Z,0.00
2019-01-28T02:23:10.867Z,0.00
2019-01-28T02:25:40.001Z,-0.10
2019-01-28T02:28:09.167Z,-0.10
2019-01-28T02:30:38.564Z,-0.10
2019-01-28T02:33:07.966Z,-0.10
2019-01-28T02:35:37.336Z,-0.10
2019-01-28T02:38:06.478Z,-0.20
2019-01-28T02:40:35.622Z,-0.20
2019-01-28T02:43:05.287Z,-0.20
2019-01-28T02:45:35.004Z,-0.20
2019-01-28T02:48:04.318Z,-0.20
2019-01-28T02:50:34.119Z,-0.30
2019-01-28T02:53:03.335Z,-0.30
2019-01-28T02:55:32.453Z,-0.30
2019-01-28T02:58:02.211Z,-0.30
2019-01-28T03:00:31.834Z,-0.30
2019-01-28T03:03:00.983Z,-0.40
2019-01-28T03:05:30.102Z,-0.40
2019-01-28T03:07:59.268Z,-0.40
2019-01-28T03:10:28.740Z,-0.40
2019-01-28T03:12:57.951Z,-0.50
2019-01-28T03:15:27.327Z,-0.50
2019-01-28T03:17:57.027Z,-0.50
2019-01-28T03:20:26.400Z,-0.50
2019-01-28T03:22:56.082Z,-0.50
2019-01-28T03:25:25.183Z,-0.50
2019-01-28T03:27:54.667Z,-0.40
2019-01-28T03:30:23.876Z,-0.40
2019-01-28T03:32:52.993Z,-0.40
2019-01-28T03:35:22.208Z,-0.40
2019-01-28T03:37:51.311Z,-0.40
2019-01-28T03:40:21.428Z,-0.40
2019-01-28T03:42:50.874Z,-0.40
2019-01-28T03:45:21.226Z,-0.40
2019-01-28T03:47:51.095Z,-0.40
2019-01-28T03:50:20.337Z,-0.40
2019-01-28T03:52:49.955Z,-0.40
2019-01-28T03:55:19.496Z,-0.50
2019-01-28T03:57:48.862Z,-0.50
2019-01-28T04:00:22.759Z,-0.50
2019-01-28T04:02:52.147Z,-0.50
2019-01-28T04:05:21.733Z,-0.50
2019-01-28T04:07:51.159Z,-0.60
2019-01-28T04:10:22.258Z,-0.60
2019-01-28T04:12:52.341Z,-0.60
2019-01-28T04:15:22.503Z,-0.60
2019-01-28T04:17:51.716Z,-0.60
2019-01-28T04:20:22.102Z,-0.60
2019-01-28T04:22:51.332Z,-0.70
2019-01-28T04:25:20.772Z,-0.70
2019-01-28T04:27:49.921Z,-0.70
2019-01-28T04:30:20.722Z,-0.70
2019-01-28T04:32:49.914Z,-0.70
2019-01-28T04:35:19.407Z,-0.80
2019-01-28T04:37:49.039Z,-0.80
2019-01-28T04:40:18.297Z,-0.80
2019-01-28T04:42:47.973Z,-0.70
2019-01-28T04:45:17.905Z,-0.70
2019-01-28T04:47:47.647Z,-0.80
2019-01-28T04:50:18.322Z,-0.70
2019-01-28T04:52:47.515Z,-0.70
2019-01-28T04:55:17.584Z,-0.70
2019-01-28T04:57:46.720Z,-0.70
2019-01-28T05:00:18.649Z,-0.80
2019-01-28T05:02:48.094Z,-0.80
2019-01-28T05:05:17.441Z,-0.80
2019-01-28T05:07:46.546Z,-0.70
2019-01-28T05:10:17.414Z,-0.70
2019-01-28T05:12:46.714Z,-0.70
2019-01-28T05:15:16.955Z,-0.70
2019-01-28T05:17:46.417Z,-0.70
2019-01-28T05:20:17.007Z,-0.60
2019-01-28T05:22:46.448Z,-0.60
2019-01-28T05:25:15.919Z,-0.60
2019-01-28T05:27:45.291Z,-0.60
2019-01-28T05:30:16.838Z,-0.60
2019-01-28T05:32:46.288Z,-0.60
2019-01-28T05:35:16.984Z,-0.60
2019-01-28T05:37:46.475Z,-0.60
2019-01-28T05:40:20.832Z,-0.50
2019-01-28T05:42:49.946Z,-0.50
2019-01-28T05:45:19.835Z,-0.50
2019-01-28T05:47:49.016Z,-0.50
2019-01-28T05:50:18.266Z,-0.50
2019-01-28T05:52:47.722Z,-0.40
2019-01-28T05:55:16.999Z,-0.40
2019-01-28T05:57:46.202Z,-0.30
2019-01-28T06:00:18.563Z,-0.30
2019-01-28T06:02:47.747Z,-0.30
2019-01-28T06:05:17.760Z,-0.30
2019-01-28T06:07:46.930Z,-0.40
2019-01-28T06:10:16.566Z,-0.40
2019-01-28T06:12:45.946Z,-0.40
2019-01-28T06:15:16.412Z,-0.40
2019-01-28T06:17:46.166Z,-0.40
2019-01-28T06:20:17.707Z,-0.30
2019-01-28T06:22:49.079Z,-0.30
2019-01-28T06:25:18.512Z,-0.20
2019-01-28T06:27:47.990Z,-0.20
2019-01-28T06:30:19.791Z,-0.20
2019-01-28T06:32:49.163Z,0.00
2019-01-28T06:35:18.301Z,0.20
2019-01-28T06:37:47.411Z,0.20
2019-01-28T06:40:19.181Z,0.10
2019-01-28T06:42:48.292Z,0.10
2019-01-28T06:45:17.471Z,0.00
2019-01-28T06:47:47.236Z,0.00
2019-01-28T06:50:17.975Z,-0.10
2019-01-28T06:52:47.219Z,-0.10
2019-01-28T06:55:16.626Z,-0.10
2019-01-28T06:57:45.996Z,-0.20
2019-01-28T07:00:24.162Z,-0.10
2019-01-28T07:02:53.571Z,-0.20
2019-01-28T07:05:22.678Z,-0.20
2019-01-28T07:07:52.461Z,-0.20
2019-01-28T07:10:21.571Z,-0.20
2019-01-28T07:12:51.236Z,-0.20
2019-01-28T07:15:21.695Z,-0.20
2019-01-28T07:17:54.866Z,-0.10
2019-01-28T07:20:23.633Z,-0.10
2019-01-28T07:22:52.815Z,-0.10
2019-01-28T07:25:22.014Z,-0.10
2019-01-28T07:27:51.436Z,-0.10
2019-01-28T07:30:26.210Z,-0.10
2019-01-28T07:32:55.943Z,-0.10
2019-01-28T07:35:25.134Z,-0.10
2019-01-28T07:37:54.394Z,-0.10
2019-01-28T07:40:23.926Z,-0.10
2019-01-28T07:42:53.287Z,0.00
2019-01-28T07:45:25.655Z,-0.10
2019-01-28T07:48:02.442Z,0.00
2019-01-28T07:50:26.151Z,0.00
2019-01-28T07:52:55.372Z,0.00
2019-01-28T07:55:24.514Z,0.00
2019-01-28T07:57:53.619Z,0.00
2019-01-28T08:00:25.090Z,0.00
2019-01-28T08:02:54.567Z,0.00
2019-01-28T08:05:24.099Z,0.10
2019-01-28T08:07:53.575Z,0.10
2019-01-28T08:15:34.875Z,0.20
2019-01-28T08:18:10.457Z,0.30
2019-01-28T08:20:35.296Z,0.30
2019-01-28T08:23:05.479Z,0.30
2019-01-28T08:25:34.944Z,0.40
2019-01-28T08:28:04.558Z,0.40
2019-01-28T08:30:35.791Z,0.40
2019-01-28T08:33:05.236Z,0.60
2019-01-28T08:35:35.512Z,0.60
2019-01-28T08:38:05.545Z,0.60
2019-01-28T08:40:35.067Z,0.70
2019-01-28T08:43:04.766Z,0.80
2019-01-28T08:45:33.914Z,0.70
2019-01-28T08:48:03.287Z,0.70
2019-01-28T08:50:33.326Z,0.70
2019-01-28T08:53:02.749Z,0.70
2019-01-28T08:55:32.114Z,0.70
2019-01-28T08:58:36.937Z,0.70
2019-01-28T09:01:06.232Z,0.70
2019-01-28T09:03:35.345Z,0.70
2019-01-28T09:06:04.690Z,0.80
2019-01-28T09:08:34.038Z,0.90
2019-01-28T09:11:03.443Z,0.90
2019-01-28T09:13:32.547Z,0.90
2019-01-28T09:16:01.695Z,1.00
2019-01-28T09:18:31.072Z,1.00
2019-01-28T09:21:00.468Z,1.00
2019-01-28T09:23:30.108Z,1.00
2019-01-28T09:25:59.247Z,1.00
2019-01-28T09:28:28.352Z,1.00
2019-01-28T09:30:58.106Z,1.00
2019-01-28T09:33:27.247Z,1.00
2019-01-28T09:35:56.614Z,1.10
2019-01-28T09:38:25.759Z,1.10
2019-01-28T09:40:54.864Z,1.10
2019-01-28T09:43:24.471Z,1.10
2019-01-28T09:45:53.579Z,1.10
2019-01-28T09:48:22.987Z,1.10
2019-01-28T09:50:52.433Z,1.10
2019-01-28T09:53:22.175Z,1.10
2019-01-28T09:55:51.815Z,1.10
2019-01-28T09:58:21.003Z,1.20
2019-01-28T10:00:51.564Z,1.20
2019-01-28T10:03:21.065Z,1.30
2019-01-28T10:05:50.503Z,1.30
2019-01-28T10:08:20.281Z,1.40
2019-01-28T10:10:49.493Z,1.40
2019-01-28T10:13:18.634Z,1.40
2019-01-28T10:15:48.116Z,1.40
2019-01-28T10:18:17.283Z,1.30
2019-01-28T10:20:48.699Z,1.30
2019-01-28T10:23:17.940Z,1.30
2019-01-28T10:25:47.487Z,1.30
2019-01-28T10:28:16.634Z,1.30
2019-01-28T10:30:46.980Z,1.30
2019-01-28T10:33:16.673Z,1.30
2019-01-28T10:35:46.918Z,1.30
2019-01-28T10:38:16.178Z,1.30
2019-01-28T10:40:46.156Z,1.30
2019-01-28T10:43:15.291Z,1.30
2019-01-28T10:45:44.472Z,1.30
2019-01-28T10:48:14.179Z,1.20
2019-01-28T10:50:44.704Z,1.20
2019-01-28T10:53:14.133Z,1.20
2019-01-28T10:55:43.680Z,1.20
2019-01-28T10:58:13.170Z,1.20
2019-01-28T11:00:49.986Z,1.10
2019-01-28T11:03:21.315Z,1.10
2019-01-28T11:05:50.495Z,1.10
2019-01-28T11:08:19.973Z,1.20
2019-01-28T11:10:49.203Z,1.20
2019-01-28T11:13:18.719Z,1.20
2019-01-28T11:15:47.919Z,1.20
2019-01-28T11:18:23.285Z,1.30
2019-01-28T11:20:52.746Z,1.20
2019-01-28T11:23:22.330Z,1.20
2019-01-28T11:25:51.626Z,1.20
2019-01-28T11:28:21.006Z,1.20
2019-01-28T11:30:55.403Z,1.20
2019-01-28T11:33:25.148Z,1.20
2019-01-28T11:35:54.633Z,1.20
2019-01-28T11:38:24.090Z,1.20
2019-01-28T11:40:53.900Z,1.30
2019-01-28T11:43:23.200Z,1.30
2019-01-28T11:46:00.703Z,1.30
2019-01-28T11:48:30.108Z,1.20
2019-01-28T11:50:59.236Z,1.20
2019-01-28T11:53:28.721Z,1.20
2019-01-28T11:55:57.843Z,1.20
2019-01-28T11:58:26.990Z,1.20
2019-01-28T12:01:24.496Z,1.20
2019-01-28T12:03:53.782Z,1.20
2019-01-28T12:06:22.895Z,1.20
2019-01-28T12:08:52.051Z,1.20
2019-01-28T12:11:21.258Z,1.20
2019-01-28T12:13:50.943Z,1.20
2019-01-28T12:16:21.191Z,1.30
2019-01-28T12:18:50.944Z,1.30
2019-01-28T12:21:20.311Z,1.30
2019-01-28T12:23:49.801Z,1.40
2019-01-28T12:26:19.247Z,1.40
2019-01-28T12:28:48.666Z,1.40
2019-01-28T12:31:17.772Z,1.40
2019-01-28T12:33:47.192Z,1.40
2019-01-28T12:36:16.640Z,1.40
2019-01-28T12:38:45.790Z,1.40
2019-01-28T12:41:17.480Z,1.40
2019-01-28T12:43:46.275Z,1.30
2019-01-28T12:46:15.674Z,1.20
2019-01-28T12:48:44.820Z,1.20
2019-01-28T12:51:13.971Z,1.20
2019-01-28T12:53:43.392Z,1.20
2019-01-28T12:56:12.799Z,1.20
2019-01-28T12:58:41.957Z,1.20
2019-01-28T13:01:11.152Z,1.20
2019-01-28T13:03:40.366Z,1.20
2019-01-28T13:06:09.480Z,1.20
2019-01-28T13:08:39.440Z,1.20
2019-01-28T13:11:08.818Z,1.10
2019-01-28T13:13:41.114Z,1.20
2019-01-28T13:16:09.143Z,1.10
2019-01-28T13:18:38.596Z,1.10
2019-01-28T13:21:07.971Z,1.10
2019-01-28T13:23:37.377Z,1.10
2019-01-28T13:26:06.881Z,1.00
2019-01-28T13:28:36.655Z,1.00
2019-01-28T13:31:06.047Z,1.00
2019-01-28T13:33:35.560Z,1.00
2019-01-28T13:36:09.326Z,1.00
2019-01-28T13:38:36.307Z,1.00
2019-01-28T13:41:05.695Z,1.00
2019-01-28T13:43:34.804Z,0.90
2019-01-28T13:46:04.226Z,0.90
2019-01-28T13:48:33.336Z,0.90
2019-01-28T13:51:02.788Z,0.90
2019-01-28T13:53:32.211Z,0.90
2019-01-28T13:56:01.886Z,0.90
2019-01-28T13:58:30.999Z,0.90
2019-01-28T14:01:00.147Z,0.90
2019-01-28T14:03:29.255Z,0.90
2019-01-28T14:05:58.666Z,0.90
2019-01-28T14:08:27.779Z,0.90
2019-01-28T14:10:57.192Z,0.90
2019-01-28T14:13:26.647Z,0.80
2019-01-28T14:15:55.794Z,0.80
2019-01-28T14:18:24.998Z,0.80
2019-01-28T14:20:55.976Z,0.90
2019-01-28T14:23:25.372Z,0.90
2019-01-28T14:25:55.309Z,0.90
2019-01-28T14:28:24.767Z,0.90
2019-01-28T14:30:54.203Z,1.00
2019-01-28T14:33:23.318Z,1.00
2019-01-28T14:35:52.463Z,1.00
2019-01-28T14:38:21.930Z,0.90
2019-01-28T14:40:51.431Z,0.90
2019-01-28T14:43:21.078Z,0.90
2019-01-28T14:45:50.497Z,1.00
2019-01-28T14:48:19.611Z,0.90
2019-01-28T14:50:48.816Z,0.90
2019-01-28T14:53:18.199Z,0.80
2019-01-28T14:55:47.346Z,0.80
2019-01-28T14:58:16.868Z,0.80
2019-01-28T15:00:47.152Z,0.80
2019-01-28T15:03:16.547Z,0.80
2019-01-28T15:05:46.022Z,0.80
2019-01-28T15:08:15.419Z,0.70
2019-01-28T15:10:44.833Z,0.80
2019-01-28T15:13:14.130Z,1.10
2019-01-28T15:15:43.551Z,1.20
2019-01-28T15:18:16.775Z,1.10
2019-01-28T15:20:46.323Z,1.10
2019-01-28T15:23:15.766Z,1.00
2019-01-28T15:25:44.937Z,0.90
2019-01-28T15:28:14.070Z,0.80
2019-01-28T15:30:43.609Z,0.70
2019-01-28T15:33:13.161Z,0.70
2019-01-28T15:35:42.445Z,0.60
2019-01-28T15:38:11.929Z,0.60
2019-01-28T15:40:41.591Z,0.60
2019-01-28T15:43:10.712Z,0.60
2019-01-28T15:45:42.003Z,0.60
2019-01-28T15:48:11.115Z,0.60
2019-01-28T15:50:40.838Z,0.50
2019-01-28T15:53:10.763Z,0.40
2019-01-28T15:55:41.855Z,0.40
2019-01-28T15:58:12.182Z,0.40
2019-01-28T16:00:43.882Z,0.40
2019-01-28T16:03:13.099Z,0.40
2019-01-28T16:05:42.567Z,0.40
2019-01-28T16:08:12.044Z,0.40
2019-01-28T16:10:41.467Z,0.40
2019-01-28T16:13:10.848Z,0.40
2019-01-28T16:15:44.819Z,0.40
2019-01-28T16:18:13.948Z,0.30
2019-01-28T16:20:43.161Z,0.30
2019-01-28T16:23:12.284Z,0.40
2019-01-28T16:25:42.299Z,0.40
2019-01-28T16:28:11.679Z,0.40
2019-01-28T16:30:40.898Z,0.40
2019-01-28T16:33:10.364Z,0.40
2019-01-28T16:35:39.827Z,0.40
2019-01-28T16:38:09.535Z,0.40
2019-01-28T16:40:38.923Z,0.40
2019-01-28T16:43:08.507Z,0.40
2019-01-28T16:45:37.900Z,0.40
2019-01-28T16:48:08.438Z,0.40
2019-01-28T16:50:37.990Z,0.50
2019-01-28T16:53:08.251Z,0.60
2019-01-28T16:55:37.647Z,0.60
2019-01-28T16:58:07.739Z,0.50
2019-01-28T17:00:41.322Z,0.50
2019-01-28T17:03:11.960Z,0.50
2019-01-28T17:05:41.298Z,0.50
2019-01-28T17:08:10.751Z,0.50
2019-01-28T17:10:40.230Z,0.40
2019-01-28T17:13:10.106Z,0.40
2019-01-28T17:15:39.482Z,0.40
2019-01-28T17:18:08.871Z,0.50
2019-01-28T17:20:37.987Z,0.40
2019-01-28T17:23:07.849Z,0.40
2019-01-28T17:25:40.014Z,0.30
2019-01-28T17:28:09.318Z,0.40
2019-01-28T17:30:40.858Z,0.40
2019-01-28T17:33:10.615Z,0.40
2019-01-28T17:35:39.958Z,0.40
2019-01-28T17:38:10.086Z,0.40
2019-01-28T17:40:40.492Z,0.40
2019-01-28T17:43:10.699Z,0.40
2019-01-28T17:45:39.919Z,0.40
2019-01-28T17:48:09.771Z,0.30
2019-01-28T17:50:43.737Z,0.30
2019-01-28T17:53:10.294Z,0.30
2019-01-28T17:55:39.407Z,0.30
2019-01-28T17:58:09.613Z,0.30
2019-01-28T18:00:51.431Z,0.30
2019-01-28T18:03:21.206Z,0.30
2019-01-28T18:05:50.311Z,0.30
2019-01-28T18:08:19.483Z,0.30
2019-01-28T18:10:48.591Z,0.30
2019-01-28T18:13:18.031Z,0.30
2019-01-28T18:15:47.528Z,0.40
2019-01-28T18:18:17.020Z,0.30
2019-01-28T18:20:51.461Z,0.30
2019-01-28T18:23:21.486Z,0.30
2019-01-28T18:25:50.596Z,0.30
2019-01-28T18:28:20.024Z,0.30
2019-01-28T18:30:50.801Z,0.30
2019-01-28T18:33:20.237Z,0.30
2019-01-28T18:35:49.811Z,0.30
2019-01-28T18:38:19.006Z,0.20
2019-01-28T18:40:48.115Z,0.20
2019-01-28T18:43:18.079Z,0.30
2019-01-28T18:45:47.451Z,0.30
2019-01-28T18:48:17.237Z,0.30
2019-01-28T18:50:46.530Z,0.30
2019-01-28T18:53:16.035Z,0.30
2019-01-28T18:55:45.564Z,0.30
2019-01-28T18:58:15.078Z,0.30
2019-01-28T19:00:44.199Z,0.30
2019-01-28T19:03:13.679Z,0.20
2019-01-28T19:05:51.487Z,0.30
2019-01-28T19:08:46.142Z,0.30
2019-01-28T19:11:52.453Z,0.30
2019-01-28T19:14:52.863Z,0.30
2019-01-28T19:17:41.020Z,0.30
2019-01-28T19:20:45.835Z,0.30
2019-01-28T19:23:15.018Z,0.30
2019-01-28T19:25:45.191Z,0.30
2019-01-28T19:28:14.563Z,0.30
2019-01-28T19:30:44.042Z,0.30
2019-01-28T19:33:13.167Z,0.30
2019-01-28T19:35:42.679Z,0.30
2019-01-28T19:38:12.079Z,0.40
2019-01-28T19:40:41.266Z,0.40
2019-01-28T19:43:11.183Z,0.40
2019-01-28T19:45:40.906Z,0.40
2019-01-28T19:48:10.023Z,0.40
2019-01-28T19:50:39.199Z,0.50
2019-01-28T19:53:08.575Z,0.50
2019-01-28T19:55:38.031Z,0.50
2019-01-28T19:58:07.338Z,0.50
2019-01-28T20:00:36.562Z,0.50
2019-01-28T20:03:08.071Z,0.50
2019-01-28T20:05:37.666Z,0.50
2019-01-28T20:08:06.780Z,0.50
2019-01-28T20:10:36.487Z,0.50
2019-01-28T20:13:05.882Z,0.50
2019-01-28T20:15:35.083Z,0.50
2019-01-28T20:18:04.401Z,0.50
2019-01-28T20:20:34.116Z,0.50
2019-01-28T20:23:04.113Z,0.50
2019-01-28T20:25:33.472Z,0.50
2019-01-28T20:28:03.530Z,0.50
2019-01-28T20:30:33.128Z,0.50
2019-01-28T20:33:02.685Z,0.50
2019-01-28T20:35:32.212Z,0.50
2019-01-28T20:38:01.657Z,0.50
2019-01-28T20:40:31.212Z,0.50
2019-01-28T20:43:00.350Z,0.50
2019-01-28T20:45:31.271Z,0.40
2019-01-28T20:48:00.747Z,0.40
2019-01-28T20:50:30.037Z,0.40
2019-01-28T20:52:59.595Z,0.40
2019-01-28T20:55:28.884Z,0.30
2019-01-28T20:57:58.068Z,0.30
2019-01-28T21:00:27.532Z,0.30
2019-01-28T21:02:56.877Z,0.30
2019-01-28T21:05:26.375Z,0.30
2019-01-28T21:07:55.567Z,0.20
2019-01-28T21:10:25.097Z,0.20
2019-01-28T21:12:54.927Z,0.20
2019-01-28T21:15:24.605Z,0.20
2019-01-28T21:17:54.616Z,0.20
2019-01-28T21:20:23.794Z,0.10
2019-01-28T21:22:52.987Z,0.20
2019-01-28T21:25:23.635Z,0.10
2019-01-28T21:27:53.019Z,0.10
2019-01-28T21:30:27.218Z,0.10
2019-01-28T21:32:57.835Z,0.10
2019-01-28T21:35:43.056Z,0.10
2019-01-28T21:38:15.640Z,0.00
2019-01-28T21:40:44.833Z,0.00
2019-01-28T21:43:17.328Z,0.00
2019-01-28T21:45:46.550Z,-0.10
2019-01-28T21:48:15.662Z,-0.10
2019-01-28T21:50:45.103Z,-0.10
2019-01-28T21:53:14.206Z,-0.20
2019-01-28T21:55:43.658Z,-0.20
2019-01-28T21:58:13.108Z,-0.20
2019-01-28T22:00:42.267Z,-0.30
2019-01-28T22:03:11.387Z,-0.20
2019-01-28T22:05:40.757Z,-0.30
2019-01-28T22:08:10.198Z,-0.30
2019-01-28T22:10:40.606Z,-0.30
2019-01-28T22:13:09.722Z,-0.20
2019-01-28T22:15:39.135Z,-0.20
2019-01-28T22:18:08.525Z,-0.20
2019-01-28T22:20:37.931Z,-0.20
2019-01-28T22:23:07.359Z,-0.20
2019-01-28T22:25:36.574Z,-0.20
2019-01-28T22:28:06.439Z,-0.20
2019-01-28T22:30:35.594Z,-0.30
2019-01-28T22:33:08.870Z,-0.30
2019-01-28T22:35:39.675Z,-0.30
2019-01-28T22:38:09.346Z,-0.30
2019-01-28T22:40:49.390Z,-0.40
2019-01-28T22:43:18.598Z,-0.40
2019-01-28T22:45:47.841Z,-0.50
2019-01-28T22:48:20.532Z,-0.50
2019-01-28T22:50:50.035Z,-0.50
2019-01-28T22:53:19.419Z,-0.50
2019-01-28T22:55:48.974Z,-0.50
2019-01-28T22:58:18.120Z,-0.50
2019-01-28T23:01:14.340Z,-0.50
2019-01-28T23:03:45.194Z,-0.60
2019-01-28T23:06:14.549Z,-0.50
2019-01-28T23:08:44.105Z,-0.60
2019-01-28T23:11:13.320Z,-0.60
2019-01-28T23:13:42.765Z,-0.60
2019-01-28T23:16:12.195Z,-0.60
2019-01-28T23:18:41.395Z,-0.60
2019-01-28T23:21:10.542Z,-0.60
2019-01-28T23:23:40.193Z,-0.60
2019-01-28T23:26:09.596Z,-0.60
2019-01-28T23:28:38.985Z,-0.60
2019-01-28T23:31:08.759Z,-0.60
2019-01-28T23:33:37.975Z,-0.60
2019-01-28T23:36:08.167Z,-0.60
2019-01-28T23:38:37.755Z,-0.70
2019-01-28T23:41:06.913Z,-0.60
2019-01-28T23:43:36.684Z,-0.70
2019-01-28T23:46:06.176Z,-0.70
2019-01-28T23:48:38.171Z,-0.70
2019-01-28T23:51:07.539Z,-0.70
2019-01-28T23:53:36.733Z,-0.70
2019-01-28T23:56:06.559Z,-0.70
2019-01-28T23:58:40.575Z,-0.70
